EDDL/DUS METAR and TAF weather

Enter ICAO airport designator
Station Type Date Time Source
EDDL METAR 2019/04/21 22:20 UTC NOAA

EDDL 212220Z 06002KT CAVOK 10/05 Q1014 NOSIG


Station Type Date Time Source
EDDL Decoded METAR 2019/04/21 22:20 UTC NOAA

Duesseldorf, Germany (EDDL) 51-18N 006-46E 41M
Apr 21, 2019 - 06:20 PM EDT / 2019.04.21 2220 UTC
Wind: from the ENE (060 degrees) at 2 MPH (2 KT):0
Visibility: greater than 7 mile(s):0
Temperature: 50 F (10 C)
Dew Point: 41 F (5 C)
Relative Humidity: 71%
Pressure (altimeter): 29.94 in. Hg (1014 hPa)
ob: EDDL 212220Z 06002KT CAVOK 10/05 Q1014 NOSIG
cycle: 22

Station Type Date Time Source
EDDL TAF 2019/04/21 18:28 UTC NOAA

TAF EDDL 211700Z 2118/2224 03007KT CAVOK
BECMG 2119/2122 09004KT
BECMG 2205/2208 12012KT
BECMG 2219/2222 08007KT

Example: see airport list